Time;durP1;ratioP1;P1;durP2;ratioP2;P2;SDS_P1;SDS_P2;PMS_P1;PMS_P2;Temp;Humidity;BMP_temperature;BMP_pressure;BME280_temperature;BME280_humidity;BME280_pressure;Samples;Min_cycle;Max_cycle;Signal;HPM_P1;HPM_P2
2020/12/13 00:00:06;;;;;;;28.73;11.50;;;;;;;;;;10250636;28;20034;-63
2020/12/13 00:05:04;;;;;;;24.35;10.13;;;;;;;;;;10269894;28;20033;-65
2020/12/13 00:10:02;;;;;;;21.40;8.13;;;;;;;;;;10265593;28;20030;-64
2020/12/13 00:14:59;;;;;;;17.23;8.33;;;;;;;;;;10245151;28;20037;-63
2020/12/13 00:19:57;;;;;;;26.10;11.53;;;;;;;;;;10277587;28;20041;-63
2020/12/13 00:24:54;;;;;;;14.17;5.13;;;;;;;;;;10275589;28;20041;-62
2020/12/13 00:29:52;;;;;;;36.97;16.93;;;;;;;;;;10285846;28;20029;-63
2020/12/13 00:34:49;;;;;;;18.60;9.07;;;;;;;;;;10283093;28;20038;-64
2020/12/13 00:39:46;;;;;;;32.23;11.97;;;;;;;;;;10287116;28;20052;-64
2020/12/13 00:44:44;;;;;;;35.40;15.00;;;;;;;;;;10292665;28;20033;-64
2020/12/13 00:49:41;;;;;;;34.67;11.70;;;;;;;;;;10264805;28;20179;-63
2020/12/13 00:54:39;;;;;;;33.07;11.73;;;;;;;;;;10297506;28;20039;-62
2020/12/13 00:59:37;;;;;;;22.50;11.27;;;;;;;;;;10293647;28;20124;-64
2020/12/13 01:04:34;;;;;;;36.13;13.50;;;;;;;;;;10270129;28;20030;-63
2020/12/13 01:09:32;;;;;;;38.90;12.17;;;;;;;;;;10289748;28;20064;-63
2020/12/13 01:14:29;;;;;;;28.20;11.70;;;;;;;;;;10288923;28;20495;-62
2020/12/13 01:19:26;;;;;;;45.70;14.57;;;;;;;;;;10284352;28;20041;-62
2020/12/13 01:24:24;;;;;;;26.83;10.13;;;;;;;;;;10289164;28;20132;-63
2020/12/13 01:29:22;;;;;;;31.48;11.90;;;;;;;;;;10299261;28;20587;-63
2020/12/13 01:34:19;;;;;;;20.47;9.83;;;;;;;;;;10294162;28;20355;-63
2020/12/13 01:39:17;;;;;;;25.97;10.17;;;;;;;;;;10297451;28;20095;-63
2020/12/13 01:44:14;;;;;;;26.73;10.60;;;;;;;;;;10294371;28;20049;-62
2020/12/13 01:49:13;;;;;;;17.57;9.03;;;;;;;;;;10288342;28;20033;-64
2020/12/13 01:54:12;;;;;;;38.80;12.82;;;;;;;;;;10305443;28;20037;-63
2020/12/13 01:59:11;;;;;;;32.80;11.13;;;;;;;;;;10290665;28;20092;-63
2020/12/13 02:04:10;;;;;;;28.90;9.32;;;;;;;;;;10272279;28;20084;-63
2020/12/13 02:09:09;;;;;;;23.20;9.48;;;;;;;;;;10287231;28;20056;-63
2020/12/13 02:14:06;;;;;;;29.75;11.82;;;;;;;;;;10287093;28;20488;-63
2020/12/13 02:19:04;;;;;;;31.70;9.53;;;;;;;;;;10282449;28;20526;-64
2020/12/13 02:24:01;;;;;;;37.42;14.65;;;;;;;;;;10285601;28;20522;-64
2020/12/13 02:28:59;;;;;;;36.37;12.23;;;;;;;;;;10289393;28;20529;-63
2020/12/13 02:33:56;;;;;;;33.93;12.80;;;;;;;;;;10298760;28;20037;-64
2020/12/13 02:38:53;;;;;;;26.63;10.93;;;;;;;;;;10291195;28;20099;-63
2020/12/13 02:43:51;;;;;;;40.23;12.00;;;;;;;;;;10269966;28;20119;-63
2020/12/13 02:48:48;;;;;;;26.43;10.10;;;;;;;;;;10294397;28;20056;-62
2020/12/13 02:53:46;;;;;;;30.67;10.37;;;;;;;;;;10291974;28;20029;-63
2020/12/13 02:58:43;;;;;;;40.83;15.30;;;;;;;;;;10283931;28;20119;-63
2020/12/13 03:03:40;;;;;;;41.83;12.33;;;;;;;;;;10287335;28;20810;-63
2020/12/13 03:08:38;;;;;;;24.67;9.57;;;;;;;;;;10283449;28;20028;-64
2020/12/13 03:13:35;;;;;;;25.70;10.80;;;;;;;;;;10285148;28;20148;-64
2020/12/13 03:18:33;;;;;;;36.67;12.57;;;;;;;;;;10280116;28;20037;-63
2020/12/13 03:23:30;;;;;;;27.07;10.37;;;;;;;;;;10281316;28;20065;-63
2020/12/13 03:28:27;;;;;;;19.83;7.73;;;;;;;;;;10284358;28;20038;-64
2020/12/13 03:33:25;;;;;;;29.10;11.27;;;;;;;;;;10289301;28;20077;-63
2020/12/13 03:38:22;;;;;;;32.60;12.03;;;;;;;;;;10278976;28;20126;-65
2020/12/13 03:43:20;;;;;;;28.87;13.40;;;;;;;;;;10267587;28;20572;-63
2020/12/13 03:48:17;;;;;;;34.53;12.83;;;;;;;;;;10276898;28;20037;-64
2020/12/13 03:53:14;;;;;;;39.53;16.47;;;;;;;;;;10284576;28;20026;-64
2020/12/13 03:58:12;;;;;;;11.57;5.77;;;;;;;;;;10291508;28;20053;-63
2020/12/13 04:03:09;;;;;;;30.53;11.07;;;;;;;;;;10272037;28;20152;-64
2020/12/13 04:08:07;;;;;;;28.43;10.70;;;;;;;;;;10270217;28;20038;-65
2020/12/13 04:13:04;;;;;;;28.93;12.93;;;;;;;;;;10273205;28;20165;-63
2020/12/13 04:18:02;;;;;;;35.67;12.07;;;;;;;;;;10272911;28;20041;-64
2020/12/13 04:23:00;;;;;;;25.00;10.70;;;;;;;;;;10271842;28;20191;-63
2020/12/13 04:27:57;;;;;;;32.63;10.13;;;;;;;;;;10278051;28;20063;-63
2020/12/13 04:32:54;;;;;;;23.97;9.87;;;;;;;;;;10261288;28;20064;-63
2020/12/13 04:37:52;;;;;;;30.70;13.77;;;;;;;;;;10274530;28;20514;-63
2020/12/13 04:42:50;;;;;;;45.77;14.90;;;;;;;;;;10276567;28;20026;-62
2020/12/13 04:48:08;;;;;;;36.53;11.55;;;;;;;;;;10277098;28;20033;-63
2020/12/13 04:53:09;;;;;;;26.45;10.80;;;;;;;;;;10283333;28;20049;-62
2020/12/13 04:58:09;;;;;;;31.45;11.55;;;;;;;;;;10277095;28;20038;-63
2020/12/13 05:03:11;;;;;;;21.48;11.07;;;;;;;;;;10249080;28;20510;-62
2020/12/13 05:08:08;;;;;;;37.83;14.23;;;;;;;;;;10278745;28;20550;-62
2020/12/13 05:13:06;;;;;;;28.43;11.73;;;;;;;;;;10279962;28;20038;-63
2020/12/13 05:18:05;;;;;;;25.65;10.35;;;;;;;;;;10281157;28;20038;-63
2020/12/13 05:23:02;;;;;;;31.70;10.93;;;;;;;;;;10277284;28;20034;-63
2020/12/13 05:28:01;;;;;;;42.87;14.00;;;;;;;;;;10276409;28;20034;-63
2020/12/13 05:32:59;;;;;;;32.38;13.40;;;;;;;;;;10277437;28;20570;-61
2020/12/13 05:37:57;;;;;;;32.63;13.85;;;;;;;;;;10294228;28;20037;-63
2020/12/13 05:42:58;;;;;;;29.03;10.67;;;;;;;;;;10290775;28;20410;-62
2020/12/13 05:53:13;;;;;;;39.53;13.02;;;;;;;;;;10293645;28;20574;-63
2020/12/13 05:58:10;;;;;;;;;;;;;;;;;;10299199;28;20037;-63
2020/12/13 06:03:09;;;;;;;34.75;11.98;;;;;;;;;;10287244;28;19919;-63
2020/12/13 06:08:10;;;;;;;32.03;9.75;;;;;;;;;;10287647;28;20048;-63
2020/12/13 06:13:07;;;;;;;31.83;11.00;;;;;;;;;;10280800;28;20124;-64
2020/12/13 06:18:05;;;;;;;33.37;12.37;;;;;;;;;;10264999;28;20033;-63
2020/12/13 06:23:05;;;;;;;11.00;5.97;;;;;;;;;;10282158;28;20404;-63
2020/12/13 06:28:02;;;;;;;41.42;14.57;;;;;;;;;;10294005;28;20056;-63
2020/12/13 06:32:59;;;;;;;22.20;9.73;;;;;;;;;;10286606;28;20044;-63
2020/12/13 06:37:59;;;;;;;21.93;9.10;;;;;;;;;;10286669;28;20033;-63
2020/12/13 06:42:56;;;;;;;27.90;11.70;;;;;;;;;;10297431;28;20503;-64
2020/12/13 06:47:54;;;;;;;30.37;9.87;;;;;;;;;;10286201;28;20480;-63
2020/12/13 06:52:52;;;;;;;37.27;13.43;;;;;;;;;;10288575;28;20060;-62
2020/12/13 06:57:50;;;;;;;30.73;9.75;;;;;;;;;;10290146;28;20041;-63
2020/12/13 07:02:54;;;;;;;26.27;11.32;;;;;;;;;;10289979;28;20083;-63
2020/12/13 07:07:53;;;;;;;21.60;10.20;;;;;;;;;;10283447;28;20045;-63
2020/12/13 07:12:53;;;;;;;;;;;;;;;;;;10293850;28;20038;-63
2020/12/13 07:17:51;;;;;;;28.45;8.25;;;;;;;;;;10270606;28;20428;-63
2020/12/13 07:22:53;;;;;;;19.58;7.97;;;;;;;;;;10283352;28;20040;-63
2020/12/13 07:27:51;;;;;;;36.80;11.82;;;;;;;;;;10271724;28;20038;-63
2020/12/13 07:32:49;;;;;;;29.55;10.73;;;;;;;;;;10277779;28;20414;-64
2020/12/13 07:37:46;;;;;;;29.60;10.73;;;;;;;;;;10289882;28;20706;-63
2020/12/13 07:42:53;;;;;;;29.33;11.77;;;;;;;;;;10270455;28;20026;-63
2020/12/13 07:48:00;;;;;;;36.80;12.23;;;;;;;;;;10273753;28;20496;-63
2020/12/13 07:52:57;;;;;;;23.77;11.80;;;;;;;;;;10280794;28;20547;-63
2020/12/13 07:57:56;;;;;;;38.60;11.17;;;;;;;;;;10284989;28;20482;-63
2020/12/13 08:02:57;;;;;;;25.77;11.23;;;;;;;;;;10277006;28;20033;-63
2020/12/13 08:07:58;;;;;;;19.50;8.10;;;;;;;;;;10291474;28;20507;-64
2020/12/13 08:12:56;;;;;;;36.88;11.18;;;;;;;;;;10290061;28;20690;-63
2020/12/13 08:18:13;;;;;;;37.47;11.52;;;;;;;;;;10280881;28;20132;-64
2020/12/13 08:23:11;;;;;;;38.20;13.63;;;;;;;;;;10285384;28;20041;-63
2020/12/13 08:28:09;;;;;;;30.55;8.88;;;;;;;;;;10277496;28;20049;-64
2020/12/13 08:33:09;;;;;;;31.60;9.77;;;;;;;;;;10270151;28;20045;-63
2020/12/13 08:38:11;;;;;;;35.08;10.43;;;;;;;;;;10273116;28;20868;-63
2020/12/13 08:43:10;;;;;;;25.60;11.07;;;;;;;;;;10270357;28;20248;-64
2020/12/13 08:48:08;;;;;;;37.65;9.57;;;;;;;;;;10285328;28;20042;-63
2020/12/13 08:53:24;;;;;;;32.40;12.65;;;;;;;;;;10262424;28;20521;-63
2020/12/13 08:58:21;;;;;;;41.97;13.70;;;;;;;;;;10275550;28;20044;-64
2020/12/13 09:03:27;;;;;;;28.50;11.83;;;;;;;;;;10267433;28;20419;-64
2020/12/13 09:08:25;;;;;;;30.55;10.35;;;;;;;;;;10286089;28;20434;-63
2020/12/13 09:13:22;;;;;;;16.70;6.03;;;;;;;;;;10294638;28;20034;-64
2020/12/13 09:18:19;;;;;;;20.20;8.40;;;;;;;;;;10264397;28;20506;-64
2020/12/13 09:23:20;;;;;;;15.67;8.10;;;;;;;;;;10290489;28;21763;-63
2020/12/13 09:28:18;;;;;;;28.33;10.85;;;;;;;;;;10286643;28;20033;-63
2020/12/13 09:33:16;;;;;;;23.95;9.75;;;;;;;;;;10272794;28;20042;-63
2020/12/13 09:38:13;;;;;;;27.50;10.03;;;;;;;;;;10268170;28;20387;-63
2020/12/13 09:43:10;;;;;;;31.90;11.67;;;;;;;;;;10286764;28;20461;-63
2020/12/13 09:48:08;;;;;;;12.20;6.13;;;;;;;;;;10283287;28;20684;-63
2020/12/13 09:53:05;;;;;;;30.83;13.13;;;;;;;;;;10290943;28;20045;-64
2020/12/13 09:58:03;;;;;;;26.03;10.00;;;;;;;;;;10270139;28;20565;-64
2020/12/13 10:03:01;;;;;;;37.63;13.60;;;;;;;;;;10275962;28;20037;-62
2020/12/13 10:13:14;;;;;;;26.58;11.48;;;;;;;;;;10271133;28;20120;-62
2020/12/13 10:18:11;;;;;;;21.87;8.30;;;;;;;;;;10286422;28;20109;-64
2020/12/13 10:23:09;;;;;;;22.17;8.10;;;;;;;;;;10293360;28;20049;-62
2020/12/13 10:28:06;;;;;;;22.80;9.63;;;;;;;;;;10259950;28;20037;-63
2020/12/13 10:33:04;;;;;;;15.77;7.80;;;;;;;;;;10284497;28;20110;-63
2020/12/13 10:38:01;;;;;;;21.57;8.70;;;;;;;;;;10287286;28;20041;-64
2020/12/13 10:42:59;;;;;;;29.00;9.53;;;;;;;;;;10290055;28;20116;-63
2020/12/13 10:47:56;;;;;;;29.80;10.20;;;;;;;;;;10292588;28;20514;-63
2020/12/13 10:52:54;;;;;;;15.07;5.57;;;;;;;;;;10281093;28;20036;-63
2020/12/13 10:57:51;;;;;;;31.87;7.73;;;;;;;;;;10298763;28;20415;-64
2020/12/13 11:02:48;;;;;;;15.57;5.90;;;;;;;;;;10287614;28;20041;-64
2020/12/13 11:07:46;;;;;;;15.43;7.57;;;;;;;;;;10291693;28;20033;-64
2020/12/13 11:12:43;;;;;;;4.77;2.93;;;;;;;;;;10275623;28;20046;-64
2020/12/13 11:17:40;;;;;;;12.73;5.73;;;;;;;;;;10275887;28;20352;-63
2020/12/13 11:22:38;;;;;;;18.63;4.20;;;;;;;;;;10286442;28;20034;-64
2020/12/13 11:27:35;;;;;;;7.60;4.03;;;;;;;;;;10272248;28;20045;-64
2020/12/13 11:32:33;;;;;;;5.93;3.87;;;;;;;;;;10258095;28;21657;-64
2020/12/13 11:37:30;;;;;;;16.20;6.30;;;;;;;;;;10255829;28;20036;-65
2020/12/13 11:42:28;;;;;;;7.43;4.07;;;;;;;;;;10272396;28;20036;-64
2020/12/13 11:47:25;;;;;;;11.70;6.30;;;;;;;;;;10284857;28;20025;-64
2020/12/13 11:52:23;;;;;;;20.83;10.95;;;;;;;;;;10272685;28;20033;-64
2020/12/13 11:57:21;;;;;;;11.47;5.47;;;;;;;;;;10242540;28;20030;-60
2020/12/13 12:02:19;;;;;;;12.38;4.72;;;;;;;;;;10277020;28;20120;-56
2020/12/13 12:07:17;;;;;;;23.63;5.05;;;;;;;;;;10283367;28;20080;-61
2020/12/13 12:12:14;;;;;;;7.67;3.43;;;;;;;;;;10285039;28;20087;-60
2020/12/13 12:17:12;;;;;;;14.27;6.17;;;;;;;;;;10292176;28;20033;-55
2020/12/13 12:22:09;;;;;;;11.67;5.67;;;;;;;;;;10288266;28;20124;-57
2020/12/13 12:27:08;;;;;;;11.13;3.53;;;;;;;;;;10272240;28;20044;-61
2020/12/13 12:32:11;;;;;;;16.70;7.00;;;;;;;;;;10256539;28;20064;-64
2020/12/13 12:37:09;;;;;;;12.95;4.63;;;;;;;;;;10250080;28;20091;-58
2020/12/13 12:42:08;;;;;;;14.13;6.28;;;;;;;;;;10247817;28;20041;-63
2020/12/13 12:47:06;;;;;;;14.30;8.30;;;;;;;;;;10280028;28;20030;-60
2020/12/13 12:52:03;;;;;;;14.57;6.93;;;;;;;;;;10257914;28;20040;-51
2020/12/13 12:57:01;;;;;;;8.63;4.70;;;;;;;;;;10289778;28;20128;-60
2020/12/13 13:02:01;;;;;;;12.87;6.60;;;;;;;;;;10279829;28;20033;-57
2020/12/13 13:12:25;;;;;;;17.42;7.35;;;;;;;;;;10265943;28;20037;-61
2020/12/13 13:17:28;;;;;;;17.50;8.23;;;;;;;;;;10289930;28;20048;-57
2020/12/13 13:22:26;;;;;;;9.50;5.00;;;;;;;;;;10231552;28;20045;-59
2020/12/13 13:27:23;;;;;;;22.87;6.67;;;;;;;;;;10281899;28;20384;-58
2020/12/13 13:32:21;;;;;;;11.03;5.23;;;;;;;;;;10257794;28;20120;-60
2020/12/13 13:37:19;;;;;;;21.57;6.20;;;;;;;;;;10288233;28;20041;-63
2020/12/13 13:42:16;;;;;;;6.13;4.32;;;;;;;;;;10273186;28;20454;-61
2020/12/13 13:47:28;;;;;;;8.50;4.90;;;;;;;;;;10283156;28;20240;-57
2020/12/13 13:52:26;;;;;;;9.98;4.05;;;;;;;;;;10279001;28;20165;-58
2020/12/13 13:57:27;;;;;;;13.02;6.28;;;;;;;;;;10295405;28;20053;-59
2020/12/13 14:02:24;;;;;;;7.85;4.32;;;;;;;;;;10281744;28;20049;-58
2020/12/13 14:07:43;;;;;;;14.07;5.97;;;;;;;;;;10275370;28;20048;-62
2020/12/13 14:12:39;;;;;;;13.25;6.18;;;;;;;;;;10282859;28;20052;-53
2020/12/13 14:17:37;;;;;;;14.57;6.50;;;;;;;;;;10274382;28;20030;-56
2020/12/13 14:22:34;;;;;;;23.60;10.50;;;;;;;;;;10277858;28;20553;-63
2020/12/13 14:27:32;;;;;;;17.60;7.07;;;;;;;;;;10288560;28;20415;-63
2020/12/13 14:32:30;;;;;;;;;;;;;;;;;;10275235;28;20038;-55
2020/12/13 14:37:27;;;;;;;18.58;9.48;;;;;;;;;;10270198;28;19913;-63
2020/12/13 14:42:26;;;;;;;24.27;7.30;;;;;;;;;;10263287;28;20069;-59
2020/12/13 14:47:23;;;;;;;21.95;8.75;;;;;;;;;;10277661;28;20101;-55
2020/12/13 14:52:21;;;;;;;19.77;8.20;;;;;;;;;;10269471;28;20136;-56
2020/12/13 14:57:19;;;;;;;20.27;7.77;;;;;;;;;;10271803;28;20045;-64
2020/12/13 15:02:17;;;;;;;;;;;;;;;;;;10254302;28;20515;-63
2020/12/13 15:07:14;;;;;;;20.17;8.73;;;;;;;;;;10279097;28;20048;-59
2020/12/13 15:12:12;;;;;;;27.83;9.83;;;;;;;;;;10275275;28;20045;-55
2020/12/13 15:17:43;;;;;;;24.23;8.73;;;;;;;;;;10278871;28;20049;-59
2020/12/13 15:22:33;;;;;;;34.45;10.77;;;;;;;;;;10265775;28;20064;-60
2020/12/13 15:27:30;;;;;;;24.03;10.73;;;;;;;;;;10259732;28;20037;-64
2020/12/13 15:32:28;;;;;;;22.27;9.00;;;;;;;;;;10283852;28;20495;-58
2020/12/13 15:37:26;;;;;;;26.73;10.43;;;;;;;;;;10272033;28;20040;-56
2020/12/13 15:42:27;;;;;;;28.88;10.45;;;;;;;;;;10246634;28;20037;-57
2020/12/13 15:47:25;;;;;;;27.45;12.00;;;;;;;;;;10271961;28;20227;-60
2020/12/13 15:52:22;;;;;;;23.07;8.80;;;;;;;;;;10278611;28;20124;-59
2020/12/13 15:57:19;;;;;;;29.40;10.97;;;;;;;;;;10246658;28;20033;-55
2020/12/13 16:02:17;;;;;;;22.53;8.37;;;;;;;;;;10266841;28;20034;-56
2020/12/13 16:07:22;;;;;;;25.50;10.10;;;;;;;;;;10271729;28;20041;-60
2020/12/13 16:12:20;;;;;;;23.13;9.30;;;;;;;;;;10275733;28;20041;-58
2020/12/13 16:17:17;;;;;;;26.30;12.90;;;;;;;;;;10255103;28;20037;-55
2020/12/13 16:22:15;;;;;;;19.73;8.77;;;;;;;;;;10275714;28;20026;-57
2020/12/13 16:27:12;;;;;;;35.93;14.03;;;;;;;;;;10271080;28;20045;-60
2020/12/13 16:32:10;;;;;;;32.93;12.50;;;;;;;;;;10254367;28;20507;-60
2020/12/13 16:37:10;;;;;;;21.30;9.33;;;;;;;;;;10268012;28;20025;-60
2020/12/13 16:42:13;;;;;;;24.95;9.50;;;;;;;;;;10279247;28;20046;-57
2020/12/13 16:47:13;;;;;;;24.52;10.30;;;;;;;;;;10281729;28;20033;-62
2020/12/13 16:57:22;;;;;;;34.22;12.55;;;;;;;;;;10283693;28;20523;-59
2020/12/13 17:02:19;;;;;;;32.38;11.75;;;;;;;;;;10273363;28;20080;-60
2020/12/13 17:07:17;;;;;;;18.73;8.43;;;;;;;;;;10290566;28;20080;-60
2020/12/13 17:12:14;;;;;;;32.40;15.07;;;;;;;;;;10292616;28;20132;-59
2020/12/13 17:17:12;;;;;;;37.07;13.00;;;;;;;;;;10284374;28;20041;-59
2020/12/13 17:22:09;;;;;;;36.27;12.27;;;;;;;;;;10282334;28;20043;-58
2020/12/13 17:27:07;;;;;;;19.40;8.67;;;;;;;;;;10290493;28;20353;-59
2020/12/13 17:32:06;;;;;;;33.00;13.90;;;;;;;;;;10285369;28;20403;-61
2020/12/13 17:37:07;;;;;;;47.38;16.55;;;;;;;;;;10291916;28;20529;-60
2020/12/13 17:42:05;;;;;;;36.92;14.80;;;;;;;;;;10277946;28;20065;-57
2020/12/13 17:47:03;;;;;;;36.70;13.18;;;;;;;;;;10267111;28;20041;-59
2020/12/13 17:57:27;;;;;;;31.85;11.55;;;;;;;;;;10273099;28;20034;-55
2020/12/13 18:02:25;;;;;;;43.47;16.33;;;;;;;;;;10270854;28;20025;-59
2020/12/13 18:07:23;;;;;;;31.60;11.27;;;;;;;;;;10279288;28;20170;-58
2020/12/13 18:12:21;;;;;;;30.87;13.90;;;;;;;;;;10278993;28;20136;-59
2020/12/13 18:17:22;;;;;;;31.47;13.97;;;;;;;;;;10273445;28;20963;-57
2020/12/13 18:22:22;;;;;;;33.95;15.25;;;;;;;;;;10267953;28;20037;-60
2020/12/13 18:27:20;;;;;;;23.20;11.63;;;;;;;;;;10268727;28;20064;-61
2020/12/13 18:32:18;;;;;;;45.87;16.27;;;;;;;;;;10287150;28;20404;-58
2020/12/13 18:37:16;;;;;;;30.98;11.93;;;;;;;;;;10297178;28;20136;-56
2020/12/13 18:42:13;;;;;;;37.90;14.43;;;;;;;;;;10278170;28;20128;-62
2020/12/13 18:47:10;;;;;;;34.70;15.20;;;;;;;;;;10278717;28;20038;-58
2020/12/13 18:52:08;;;;;;;55.03;24.27;;;;;;;;;;10282061;28;20052;-56
2020/12/13 18:57:05;;;;;;;59.17;25.43;;;;;;;;;;10287985;28;20522;-61
2020/12/13 19:02:10;;;;;;;58.53;24.63;;;;;;;;;;10285154;28;20033;-59
2020/12/13 19:07:07;;;;;;;57.03;23.95;;;;;;;;;;10279215;28;20068;-56
2020/12/13 19:12:04;;;;;;;58.70;22.37;;;;;;;;;;10277945;28;20129;-56
2020/12/13 19:17:02;;;;;;;58.00;24.57;;;;;;;;;;10276851;28;21756;-58
2020/12/13 19:22:00;;;;;;;59.37;23.47;;;;;;;;;;10279105;28;20095;-55
2020/12/13 19:26:58;;;;;;;58.72;24.58;;;;;;;;;;10273739;28;20038;-56
2020/12/13 19:31:56;;;;;;;49.55;23.23;;;;;;;;;;10290170;28;20026;-54
2020/12/13 19:36:53;;;;;;;52.27;22.80;;;;;;;;;;10273867;28;20038;-56
2020/12/13 19:41:51;;;;;;;58.13;23.60;;;;;;;;;;10273138;28;20033;-55
2020/12/13 19:46:49;;;;;;;57.25;24.75;;;;;;;;;;10280093;28;20127;-55
2020/12/13 19:51:47;;;;;;;33.15;15.35;;;;;;;;;;10283148;28;20033;-52
2020/12/13 19:56:45;;;;;;;49.20;16.87;;;;;;;;;;10272509;28;20037;-63
2020/12/13 20:01:45;;;;;;;34.35;11.85;;;;;;;;;;10266413;28;20044;-51
2020/12/13 20:06:43;;;;;;;30.38;11.23;;;;;;;;;;10265635;28;20648;-59
2020/12/13 20:11:40;;;;;;;38.40;15.07;;;;;;;;;;10266843;28;21784;-58
2020/12/13 20:16:54;;;;;;;35.83;13.53;;;;;;;;;;10266500;28;20091;-51
2020/12/13 21:19:06;;;;;;;48.78;17.17;;;;;;;;;;10283025;28;20041;-60
2020/12/13 21:44:19;;;;;;;22.83;12.15;;;;;;;;;;10288790;28;20492;-56
2020/12/13 21:54:14;;;;;;;24.83;12.20;;;;;;;;;;10292451;28;20131;-59
2020/12/13 22:30:43;;;;;;;31.90;12.85;;;;;;;;;;10278538;28;20454;-57
2020/12/13 22:35:41;;;;;;;24.40;9.97;;;;;;;;;;10276830;28;21229;-59
2020/12/13 22:40:38;;;;;;;26.00;9.87;;;;;;;;;;10291441;28;20507;-55
2020/12/13 22:45:35;;;;;;;23.10;9.83;;;;;;;;;;10290882;28;20563;-54
2020/12/13 22:50:35;;;;;;;24.60;11.20;;;;;;;;;;10274635;28;20531;-55
2020/12/13 22:55:32;;;;;;;22.02;10.20;;;;;;;;;;10275501;28;20045;-57
2020/12/13 23:00:29;;;;;;;23.77;10.40;;;;;;;;;;10284898;28;20038;-58
2020/12/13 23:05:27;;;;;;;23.97;10.73;;;;;;;;;;10280474;28;20061;-59
2020/12/13 23:10:24;;;;;;;30.33;12.03;;;;;;;;;;10295392;28;20060;-61
2020/12/13 23:15:22;;;;;;;21.37;10.20;;;;;;;;;;10286002;28;20462;-60
2020/12/13 23:20:19;;;;;;;24.17;10.00;;;;;;;;;;10262184;28;20054;-55
2020/12/13 23:25:16;;;;;;;27.13;9.70;;;;;;;;;;10287063;28;20045;-58
2020/12/13 23:30:15;;;;;;;21.00;8.90;;;;;;;;;;10268415;28;20045;-60
2020/12/13 23:35:12;;;;;;;;;;;;;;;;;;10279243;28;20542;-56
2020/12/13 23:40:10;;;;;;;28.33;11.27;;;;;;;;;;10281079;28;20007;-56
2020/12/13 23:45:09;;;;;;;29.52;11.90;;;;;;;;;;10271466;28;20079;-61
2020/12/13 23:50:06;;;;;;;;;;;;;;;;;;10283270;28;20040;-61
2020/12/13 23:55:04;;;;;;;25.95;11.25;;;;;;;;;;10282415;28;19913;-56
